Time,TemperatureF,DewpointF,PressureIn,WindDirection,WindDirectionDegrees,WindSpeedMPH,WindSpeedGustMPH,Humidity,HourlyPrecipIn,Conditions,Clouds,dailyrainin,SoftwareType,DateUTC
2013-07-30 00:03:00,56.0,-99.9,30.19,SSW,212,7.0,11.0,-999,-99.99,,,-99.99,,2013-07-30 08:03:00,
2013-07-30 01:03:00,57.0,-99.9,30.19,SSW,212,6.0,9.0,-999,-99.99,,,-99.99,,2013-07-30 09:03:00,
2013-07-30 01:23:00,57.0,-99.9,30.20,SSW,209,8.0,10.0,-999,-99.99,,,-99.99,,2013-07-30 09:23:00,
2013-07-30 01:43:00,58.0,-99.9,30.19,SSW,201,11.0,12.0,-999,-99.99,,,-99.99,,2013-07-30 09:43:00,
2013-07-30 01:53:00,58.0,-99.9,30.19,SSW,201,11.0,13.0,-999,-99.99,,,-99.99,,2013-07-30 09:53:00,
2013-07-30 02:03:00,58.0,-99.9,30.20,SSW,203,9.0,12.0,-999,-99.99,,,-99.99,,2013-07-30 10:03:00,
2013-07-30 02:44:00,58.0,-99.9,30.20,SSW,210,7.0,11.0,-999,-99.99,,,-99.99,,2013-07-30 10:44:00,
2013-07-30 03:33:00,57.0,-99.9,30.20,SSW,202,10.0,12.0,-999,-99.99,,,-99.99,,2013-07-30 11:33:00,
2013-07-30 03:43:00,57.0,-99.9,30.20,SW,216,8.0,11.0,-999,-99.99,,,-99.99,,2013-07-30 11:43:00,
2013-07-30 03:53:00,57.0,-99.9,30.20,SW,227,9.0,12.0,-999,-99.99,,,-99.99,,2013-07-30 11:53:00,
2013-07-30 04:33:00,57.0,-99.9,30.21,SW,233,10.0,14.0,-999,-99.99,,,-99.99,,2013-07-30 12:33:00,
2013-07-30 04:42:00,56.0,-99.9,30.20,SW,230,13.0,16.0,-999,-99.99,,,-99.99,,2013-07-30 12:42:00,
2013-07-30 05:02:00,56.0,-99.9,30.21,SW,234,12.0,15.0,-999,-99.99,,,-99.99,,2013-07-30 13:02:00,
2013-07-30 06:03:00,56.0,-99.9,30.21,SW,233,14.0,17.0,-999,-99.99,,,-99.99,,2013-07-30 14:03:00,
2013-07-30 07:02:00,56.0,-99.9,30.22,SW,225,11.0,16.0,-999,-99.99,,,-99.99,,2013-07-30 15:02:00,
2013-07-30 07:44:00,56.0,-99.9,30.22,SSW,213,9.0,12.0,-999,-99.99,,,-99.99,,2013-07-30 15:44:00,
2013-07-30 08:02:00,56.0,-99.9,30.22,SW,222,10.0,12.0,-999,-99.99,,,-99.99,,2013-07-30 16:02:00,
2013-07-30 08:12:00,56.0,-99.9,30.22,SW,219,11.0,13.0,-999,-99.99,,,-99.99,,2013-07-30 16:12:00,
2013-07-30 08:23:00,56.0,-99.9,30.22,SW,230,8.0,11.0,-999,-99.99,,,-99.99,,2013-07-30 16:23:00,
2013-07-30 08:44:00,56.0,-99.9,30.23,SW,232,8.0,9.0,-999,-99.99,,,-99.99,,2013-07-30 16:44:00,
2013-07-30 09:02:00,56.0,-99.9,30.23,WSW,238,7.0,10.0,-999,-99.99,,,-99.99,,2013-07-30 17:02:00,
2013-07-30 09:43:00,55.0,-99.9,30.23,SW,226,7.0,8.0,-999,-99.99,,,-99.99,,2013-07-30 17:43:00,
2013-07-30 10:43:00,55.0,-99.9,30.24,WSW,237,5.0,7.0,-999,-99.99,,,-99.99,,2013-07-30 18:43:00,
2013-07-30 11:03:00,55.0,-99.9,30.24,SW,220,6.0,8.0,-999,-99.99,,,-99.99,,2013-07-30 19:03:00,
2013-07-30 11:44:00,55.0,-99.9,30.25,SW,226,6.0,7.0,-999,-99.99,,,-99.99,,2013-07-30 19:44:00,
2013-07-30 12:02:00,55.0,-99.9,30.24,SW,231,6.0,7.0,-999,-99.99,,,-99.99,,2013-07-30 20:02:00,
2013-07-30 12:52:00,55.0,-99.9,30.25,SSW,200,5.0,7.0,-999,-99.99,,,-99.99,,2013-07-30 20:52:00,
2013-07-30 14:02:00,56.0,-99.9,30.25,SW,222,3.0,4.0,-999,-99.99,,,-99.99,,2013-07-30 22:02:00,
2013-07-30 14:12:00,56.0,-99.9,30.25,SW,222,3.0,4.0,-999,-99.99,,,-99.99,,2013-07-30 22:12:00,
2013-07-30 14:32:00,57.0,-99.9,30.24,SSW,211,4.0,5.0,-999,-99.99,,,-99.99,,2013-07-30 22:32:00,
2013-07-30 14:43:00,58.0,-99.9,30.24,SSW,212,4.0,5.0,-999,-99.99,,,-99.99,,2013-07-30 22:43:00,
2013-07-30 14:53:00,58.0,-99.9,30.24,SSW,202,4.0,5.0,-999,-99.99,,,-99.99,,2013-07-30 22:53:00,
2013-07-30 15:02:00,58.0,-99.9,30.24,SSW,196,5.0,6.0,-999,-99.99,,,-99.99,,2013-07-30 23:02:00,
2013-07-30 15:13:00,58.0,-99.9,30.24,SSW,193,6.0,7.0,-999,-99.99,,,-99.99,,2013-07-30 23:13:00,
2013-07-30 15:42:00,59.0,-99.9,30.22,South,185,8.0,10.0,-999,-99.99,,,-99.99,,2013-07-30 23:42:00,
2013-07-30 15:53:00,58.0,-99.9,30.23,South,187,8.0,9.0,-999,-99.99,,,-99.99,,2013-07-30 23:53:00,
2013-07-30 16:02:00,58.0,-99.9,30.23,South,187,8.0,9.0,-999,-99.99,,,-99.99,,2013-07-31 00:02:00,
2013-07-30 16:12:00,58.0,-99.9,30.23,South,184,8.0,9.0,-999,-99.99,,,-99.99,,2013-07-31 00:12:00,
2013-07-30 16:22:00,59.0,-99.9,30.22,South,185,8.0,10.0,-999,-99.99,,,-99.99,,2013-07-31 00:22:00,
2013-07-30 16:32:00,59.0,-99.9,30.22,South,185,8.0,10.0,-999,-99.99,,,-99.99,,2013-07-31 00:32:00,
2013-07-30 20:02:00,58.0,-99.9,30.20,SSW,193,12.0,13.0,-999,-99.99,,,-99.99,,2013-07-31 04:02:00,
2013-07-30 20:12:00,58.0,-99.9,30.20,SSW,193,12.0,13.0,-999,-99.99,,,-99.99,,2013-07-31 04:12:00,
2013-07-30 20:22:00,58.0,-99.9,30.20,SSW,193,12.0,13.0,-999,-99.99,,,-99.99,,2013-07-31 04:22:00,
2013-07-30 20:32:00,58.0,-99.9,30.19,South,189,13.0,14.0,-999,-99.99,,,-99.99,,2013-07-31 04:32:00,
2013-07-30 20:42:00,58.0,-99.9,30.19,South,187,11.0,14.0,-999,-99.99,,,-99.99,,2013-07-31 04:42:00,
2013-07-30 20:52:00,58.0,-99.9,30.19,South,191,11.0,13.0,-999,-99.99,,,-99.99,,2013-07-31 04:52:00,
2013-07-30 21:02:00,58.0,-99.9,30.20,SSW,198,12.0,14.0,-999,-99.99,,,-99.99,,2013-07-31 05:02:00,
2013-07-30 21:12:00,58.0,-99.9,30.20,SSW,193,12.0,13.0,-999,-99.99,,,-99.99,,2013-07-31 05:12:00,
2013-07-30 21:32:00,58.0,-99.9,30.20,South,189,10.0,12.0,-999,-99.99,,,-99.99,,2013-07-31 05:32:00,
2013-07-30 21:43:00,58.0,-99.9,30.20,SSW,193,12.0,13.0,-999,-99.99,,,-99.99,,2013-07-31 05:43:00,
2013-07-30 21:52:00,58.0,-99.9,30.20,SSW,194,11.0,13.0,-999,-99.99,,,-99.99,,2013-07-31 05:52:00,
2013-07-30 22:02:00,58.0,-99.9,30.20,SSW,194,9.0,11.0,-999,-99.99,,,-99.99,,2013-07-31 06:02:00,
2013-07-30 22:43:00,57.0,-99.9,30.21,SSW,197,12.0,13.0,-999,-99.99,,,-99.99,,2013-07-31 06:43:00,
2013-07-30 23:32:00,56.0,-99.9,30.21,SSW,202,14.0,16.0,-999,-99.99,,,-99.99,,2013-07-31 07:32:00,
2013-07-30 23:52:00,56.0,-99.9,30.21,SSW,202,15.0,17.0,-999,-99.99,,,-99.99,,2013-07-31 07:52:00,